sensor_id;sensor_type;location;lat;lon;timestamp;pressure;altitude;pressure_sealevel;temperature;humidity
47556;BME280;33291;46.222;26.460;2023-11-19T00:01:35;96503.22;;;0.95;97.35
47556;BME280;33291;46.222;26.460;2023-11-19T00:04:00;96503.22;;;0.95;97.25
47556;BME280;33291;46.222;26.460;2023-11-19T00:06:26;96510.09;;;0.95;95.72
47556;BME280;33291;46.222;26.460;2023-11-19T00:08:52;96512.81;;;0.92;95.49
47556;BME280;33291;46.222;26.460;2023-11-19T00:11:17;96516.44;;;0.87;96.48
47556;BME280;33291;46.222;26.460;2023-11-19T00:13:43;96524.97;;;0.88;96.65
47556;BME280;33291;46.222;26.460;2023-11-19T00:16:08;96515.72;;;0.85;96.25
47556;BME280;33291;46.222;26.460;2023-11-19T00:18:35;96522.09;;;0.94;96.14
47556;BME280;33291;46.222;26.460;2023-11-19T00:21:01;96528.78;;;0.97;96.57
47556;BME280;33291;46.222;26.460;2023-11-19T00:23:27;96524.59;;;0.96;96.94
47556;BME280;33291;46.222;26.460;2023-11-19T00:25:53;96525.50;;;0.95;96.94
47556;BME280;33291;46.222;26.460;2023-11-19T00:28:18;96521.41;;;0.91;96.43
47556;BME280;33291;46.222;26.460;2023-11-19T00:30:44;96523.09;;;0.92;95.58
47556;BME280;33291;46.222;26.460;2023-11-19T00:33:10;96521.72;;;0.84;95.67
47556;BME280;33291;46.222;26.460;2023-11-19T00:35:35;96518.44;;;0.82;95.36
47556;BME280;33291;46.222;26.460;2023-11-19T00:38:01;96520.22;;;0.80;94.40
47556;BME280;33291;46.222;26.460;2023-11-19T00:40:27;96522.13;;;0.77;94.20
47556;BME280;33291;46.222;26.460;2023-11-19T00:42:53;96528.59;;;0.84;95.07
47556;BME280;33291;46.222;26.460;2023-11-19T00:45:19;96531.31;;;0.81;95.84
47556;BME280;33291;46.222;26.460;2023-11-19T00:47:44;96516.59;;;0.84;96.27
47556;BME280;33291;46.222;26.460;2023-11-19T00:50:10;96525.81;;;0.88;97.06
47556;BME280;33291;46.222;26.460;2023-11-19T00:52:36;96524.13;;;0.87;97.65
47556;BME280;33291;46.222;26.460;2023-11-19T00:55:03;96536.97;;;0.87;97.40
47556;BME280;33291;46.222;26.460;2023-11-19T00:57:29;96522.03;;;0.78;96.16
47556;BME280;33291;46.222;26.460;2023-11-19T00:59:55;96529.19;;;0.89;95.36
47556;BME280;33291;46.222;26.460;2023-11-19T01:02:21;96534.25;;;0.91;94.98
47556;BME280;33291;46.222;26.460;2023-11-19T01:04:46;96536.66;;;0.94;95.37
47556;BME280;33291;46.222;26.460;2023-11-19T01:07:11;96535.75;;;0.95;95.86
47556;BME280;33291;46.222;26.460;2023-11-19T01:09:38;96532.41;;;0.93;95.77
47556;BME280;33291;46.222;26.460;2023-11-19T01:12:04;96528.53;;;0.85;96.03
47556;BME280;33291;46.222;26.460;2023-11-19T01:14:30;96536.97;;;0.87;96.70
47556;BME280;33291;46.222;26.460;2023-11-19T01:16:55;96535.97;;;0.90;96.77
47556;BME280;33291;46.222;26.460;2023-11-19T01:19:22;96545.41;;;0.89;96.44
47556;BME280;33291;46.222;26.460;2023-11-19T01:21:48;96540.19;;;0.91;96.82
47556;BME280;33291;46.222;26.460;2023-11-19T01:24:14;96536.66;;;0.94;97.37
47556;BME280;33291;46.222;26.460;2023-11-19T01:26:39;96521.94;;;0.97;98.04
47556;BME280;33291;46.222;26.460;2023-11-19T01:29:16;96526.06;;;1.00;98.00
47556;BME280;33291;46.222;26.460;2023-11-19T01:31:46;96524.44;;;0.99;97.80
47556;BME280;33291;46.222;26.460;2023-11-19T01:34:12;96526.00;;;1.01;98.16
47556;BME280;33291;46.222;26.460;2023-11-19T01:36:38;96531.13;;;1.01;98.55
47556;BME280;33291;46.222;26.460;2023-11-19T01:39:04;96519.16;;;1.02;98.40
47556;BME280;33291;46.222;26.460;2023-11-19T01:41:34;96508.28;;;0.97;98.71
47556;BME280;33291;46.222;26.460;2023-11-19T01:44:00;96517.47;;;1.01;98.53
47556;BME280;33291;46.222;26.460;2023-11-19T01:46:26;96519.16;;;1.02;98.89
47556;BME280;33291;46.222;26.460;2023-11-19T01:48:52;96503.53;;;0.89;96.86
47556;BME280;33291;46.222;26.460;2023-11-19T01:51:19;96519.59;;;0.93;96.31
47556;BME280;33291;46.222;26.460;2023-11-19T01:53:47;96516.97;;;0.94;95.76
47556;BME280;33291;46.222;26.460;2023-11-19T01:56:14;96492.78;;;0.82;95.43
47556;BME280;33291;46.222;26.460;2023-11-19T01:58:42;96515.88;;;0.98;95.93
47556;BME280;33291;46.222;26.460;2023-11-19T02:01:09;96510.84;;;0.97;96.22
47556;BME280;33291;46.222;26.460;2023-11-19T02:03:34;96516.28;;;0.91;94.99
47556;BME280;33291;46.222;26.460;2023-11-19T02:06:00;96509.56;;;0.88;94.53
47556;BME280;33291;46.222;26.460;2023-11-19T02:08:26;96521.25;;;0.94;94.77
47556;BME280;33291;46.222;26.460;2023-11-19T02:10:52;96514.03;;;0.84;94.81
47556;BME280;33291;46.222;26.460;2023-11-19T02:13:20;96514.47;;;0.93;95.82
47556;BME280;33291;46.222;26.460;2023-11-19T02:15:46;96519.66;;;0.91;94.11
47556;BME280;33291;46.222;26.460;2023-11-19T02:18:27;96523.75;;;0.95;94.37
47556;BME280;33291;46.222;26.460;2023-11-19T02:20:59;96524.44;;;0.99;94.73
47556;BME280;33291;46.222;26.460;2023-11-19T02:23:28;96523.59;;;0.98;93.77
47556;BME280;33291;46.222;26.460;2023-11-19T02:26:08;96531.19;;;1.00;94.13
47556;BME280;33291;46.222;26.460;2023-11-19T02:28:37;96522.75;;;0.98;94.65
47556;BME280;33291;46.222;26.460;2023-11-19T02:31:03;96529.47;;;1.00;95.37
47556;BME280;33291;46.222;26.460;2023-11-19T02:33:35;96525.34;;;0.98;95.82
47556;BME280;33291;46.222;26.460;2023-11-19T02:36:03;96531.28;;;0.98;96.08
47556;BME280;33291;46.222;26.460;2023-11-19T02:38:29;96532.88;;;1.01;96.36
47556;BME280;33291;46.222;26.460;2023-11-19T02:40:56;96507.69;;;0.92;96.90
47556;BME280;33291;46.222;26.460;2023-11-19T02:43:22;96520.78;;;1.03;96.76
47556;BME280;33291;46.222;26.460;2023-11-19T02:45:48;96515.00;;;0.99;96.73
47556;BME280;33291;46.222;26.460;2023-11-19T02:48:13;96509.03;;;0.99;96.85
47556;BME280;33291;46.222;26.460;2023-11-19T02:50:42;96521.72;;;1.02;97.18
47556;BME280;33291;46.222;26.460;2023-11-19T02:53:07;96529.41;;;1.02;97.26
47556;BME280;33291;46.222;26.460;2023-11-19T02:55:33;96537.91;;;1.02;97.25
47556;BME280;33291;46.222;26.460;2023-11-19T02:58:04;96530.47;;;0.98;97.43
47556;BME280;33291;46.222;26.460;2023-11-19T03:00:35;96533.94;;;0.97;97.24
47556;BME280;33291;46.222;26.460;2023-11-19T03:03:02;96523.25;;;0.88;96.93
47556;BME280;33291;46.222;26.460;2023-11-19T03:05:43;96522.16;;;0.93;96.82
47556;BME280;33291;46.222;26.460;2023-11-19T03:08:09;96530.47;;;0.98;97.11
47556;BME280;33291;46.222;26.460;2023-11-19T03:10:35;96531.34;;;0.97;97.29
47556;BME280;33291;46.222;26.460;2023-11-19T03:13:01;96535.59;;;0.98;96.94
47556;BME280;33291;46.222;26.460;2023-11-19T03:15:27;96525.66;;;0.92;96.65
47556;BME280;33291;46.222;26.460;2023-11-19T03:17:52;96534.00;;;0.95;97.01
47556;BME280;33291;46.222;26.460;2023-11-19T03:20:18;96544.09;;;0.98;96.87
47556;BME280;33291;46.222;26.460;2023-11-19T03:22:43;96536.66;;;0.94;96.58
47556;BME280;33291;46.222;26.460;2023-11-19T03:25:10;96546.66;;;0.98;96.32
47556;BME280;33291;46.222;26.460;2023-11-19T03:27:39;96543.28;;;0.98;96.33
47556;BME280;33291;46.222;26.460;2023-11-19T03:30:07;96552.50;;;1.02;96.53
47556;BME280;33291;46.222;26.460;2023-11-19T03:32:35;96546.75;;;0.97;95.24
47556;BME280;33291;46.222;26.460;2023-11-19T03:35:04;96536.16;;;0.87;93.02
47556;BME280;33291;46.222;26.460;2023-11-19T03:37:32;96553.53;;;0.98;92.84
47556;BME280;33291;46.222;26.460;2023-11-19T03:39:58;96553.69;;;0.95;93.37
47556;BME280;33291;46.222;26.460;2023-11-19T03:42:28;96555.13;;;1.00;94.11
47556;BME280;33291;46.222;26.460;2023-11-19T03:44:55;96540.88;;;0.95;94.59
47556;BME280;33291;46.222;26.460;2023-11-19T03:47:21;96536.66;;;0.94;94.90
47556;BME280;33291;46.222;26.460;2023-11-19T03:49:51;96555.22;;;0.99;95.40
47556;BME280;33291;46.222;26.460;2023-11-19T03:52:17;96549.47;;;0.94;95.49
47556;BME280;33291;46.222;26.460;2023-11-19T03:54:43;96554.84;;;0.89;95.26
47556;BME280;33291;46.222;26.460;2023-11-19T03:57:08;96561.88;;;0.85;95.86
47556;BME280;33291;46.222;26.460;2023-11-19T03:59:35;96545.88;;;0.80;96.21
47556;BME280;33291;46.222;26.460;2023-11-19T04:02:01;96552.50;;;0.84;96.30
47556;BME280;33291;46.222;26.460;2023-11-19T04:04:28;96533.97;;;0.79;96.69
47556;BME280;33291;46.222;26.460;2023-11-19T04:06:54;96541.66;;;0.79;96.63
47556;BME280;33291;46.222;26.460;2023-11-19T04:09:20;96550.59;;;0.88;97.10
47556;BME280;33291;46.222;26.460;2023-11-19T04:11:45;96539.44;;;0.89;96.81
47556;BME280;33291;46.222;26.460;2023-11-19T04:14:13;96542.66;;;0.93;96.75
47556;BME280;33291;46.222;26.460;2023-11-19T04:16:39;96532.41;;;0.93;96.96
47556;BME280;33291;46.222;26.460;2023-11-19T04:19:05;96532.00;;;0.84;96.80
47556;BME280;33291;46.222;26.460;2023-11-19T04:21:31;96531.00;;;0.87;96.94
47556;BME280;33291;46.222;26.460;2023-11-19T04:23:57;96532.72;;;0.86;96.98
47556;BME280;33291;46.222;26.460;2023-11-19T04:26:22;96536.97;;;0.87;97.09
47556;BME280;33291;46.222;26.460;2023-11-19T04:28:48;96533.50;;;0.88;97.04
47556;BME280;33291;46.222;26.460;2023-11-19T04:31:15;96529.19;;;0.89;96.97
47556;BME280;33291;46.222;26.460;2023-11-19T04:33:41;96523.31;;;0.87;96.44
47556;BME280;33291;46.222;26.460;2023-11-19T04:36:08;96514.78;;;0.86;96.32
47556;BME280;33291;46.222;26.460;2023-11-19T04:38:33;96518.13;;;0.88;96.22
47556;BME280;33291;46.222;26.460;2023-11-19T04:41:00;96527.53;;;0.88;96.31
47556;BME280;33291;46.222;26.460;2023-11-19T04:43:25;96518.94;;;0.89;96.53
47556;BME280;33291;46.222;26.460;2023-11-19T04:45:51;96516.38;;;0.89;96.29
47556;BME280;33291;46.222;26.460;2023-11-19T04:48:16;96510.50;;;0.87;96.63
47556;BME280;33291;46.222;26.460;2023-11-19T04:50:42;96521.56;;;0.87;96.43
47556;BME280;33291;46.222;26.460;2023-11-19T04:53:07;96518.19;;;0.87;96.72
47556;BME280;33291;46.222;26.460;2023-11-19T04:55:33;96505.59;;;0.82;96.83
47556;BME280;33291;46.222;26.460;2023-11-19T04:57:58;96505.38;;;0.87;96.96
47556;BME280;33291;46.222;26.460;2023-11-19T05:00:24;96511.41;;;0.86;96.77
47556;BME280;33291;46.222;26.460;2023-11-19T05:02:49;96498.16;;;0.78;97.20
47556;BME280;33291;46.222;26.460;2023-11-19T05:05:15;96498.88;;;0.80;97.47
47556;BME280;33291;46.222;26.460;2023-11-19T05:07:41;96521.56;;;0.87;97.16
47556;BME280;33291;46.222;26.460;2023-11-19T05:10:07;96515.88;;;0.82;97.06
47556;BME280;33291;46.222;26.460;2023-11-19T05:12:32;96518.28;;;0.85;96.81
47556;BME280;33291;46.222;26.460;2023-11-19T05:14:58;96520.06;;;0.83;96.67
47556;BME280;33291;46.222;26.460;2023-11-19T05:17:23;96532.06;;;0.83;96.63
47556;BME280;33291;46.222;26.460;2023-11-19T05:19:49;96530.31;;;0.83;97.30
47556;BME280;33291;46.222;26.460;2023-11-19T05:22:14;96527.75;;;0.83;97.43
47556;BME280;33291;46.222;26.460;2023-11-19T05:24:40;96523.72;;;0.79;97.80
47556;BME280;33291;46.222;26.460;2023-11-19T05:27:06;96509.53;;;0.72;97.50
47556;BME280;33291;46.222;26.460;2023-11-19T05:29:33;96525.50;;;0.77;97.45
47556;BME280;33291;46.222;26.460;2023-11-19T05:31:58;96533.81;;;0.82;97.34
47556;BME280;33291;46.222;26.460;2023-11-19T05:34:24;96527.75;;;0.83;97.58
47556;BME280;33291;46.222;26.460;2023-11-19T05:36:50;96533.66;;;0.85;97.64
47556;BME280;33291;46.222;26.460;2023-11-19T05:39:16;96525.19;;;0.83;97.72
47556;BME280;33291;46.222;26.460;2023-11-19T05:41:44;96529.34;;;0.86;97.81
47556;BME280;33291;46.222;26.460;2023-11-19T05:44:09;96533.50;;;0.88;97.58
47556;BME280;33291;46.222;26.460;2023-11-19T05:46:34;96527.53;;;0.88;97.56
47556;BME280;33291;46.222;26.460;2023-11-19T05:49:05;96530.00;;;0.89;97.29
47556;BME280;33291;46.222;26.460;2023-11-19T05:51:31;96526.53;;;0.91;97.56
47556;BME280;33291;46.222;26.460;2023-11-19T05:53:56;96527.28;;;0.93;97.34
47556;BME280;33291;46.222;26.460;2023-11-19T05:56:22;96524.88;;;0.89;97.63
47556;BME280;33291;46.222;26.460;2023-11-19T05:58:48;96518.19;;;0.87;97.69
47556;BME280;33291;46.222;26.460;2023-11-19T06:01:14;96519.75;;;0.89;97.34
47556;BME280;33291;46.222;26.460;2023-11-19T06:03:40;96525.56;;;0.93;96.93
47556;BME280;33291;46.222;26.460;2023-11-19T06:06:06;96515.53;;;0.88;96.41
47556;BME280;33291;46.222;26.460;2023-11-19T06:08:31;96515.22;;;0.95;96.49
47556;BME280;33291;46.222;26.460;2023-11-19T06:10:57;96522.75;;;0.98;95.71
47556;BME280;33291;46.222;26.460;2023-11-19T06:13:23;96524.59;;;0.96;95.45
47556;BME280;33291;46.222;26.460;2023-11-19T06:15:49;96522.94;;;0.95;93.97
47556;BME280;33291;46.222;26.460;2023-11-19T06:18:16;96526.38;;;0.94;93.76
47556;BME280;33291;46.222;26.460;2023-11-19T06:20:41;96520.00;;;0.85;93.05
47556;BME280;33291;46.222;26.460;2023-11-19T06:23:07;96524.88;;;0.89;92.82
47556;BME280;33291;46.222;26.460;2023-11-19T06:25:32;96526.38;;;0.94;93.26
47556;BME280;33291;46.222;26.460;2023-11-19T06:27:58;96527.91;;;0.98;93.64
47556;BME280;33291;46.222;26.460;2023-11-19T06:30:24;96528.78;;;0.97;93.92
47556;BME280;33291;46.222;26.460;2023-11-19T06:32:51;96519.31;;;0.99;93.20
47556;BME280;33291;46.222;26.460;2023-11-19T06:35:16;96522.16;;;0.93;92.69
47556;BME280;33291;46.222;26.460;2023-11-19T06:37:42;96529.72;;;0.96;92.70
47556;BME280;33291;46.222;26.460;2023-11-19T06:40:08;96529.56;;;0.99;92.67
47556;BME280;33291;46.222;26.460;2023-11-19T06:42:34;96533.84;;;0.98;92.53
47556;BME280;33291;46.222;26.460;2023-11-19T06:45:00;96532.13;;;0.99;92.76
47556;BME280;33291;46.222;26.460;2023-11-19T06:47:29;96531.19;;;1.00;93.00
47556;BME280;33291;46.222;26.460;2023-11-19T06:49:55;96536.78;;;1.08;93.69
47556;BME280;33291;46.222;26.460;2023-11-19T06:52:20;96533.38;;;1.08;93.85
47556;BME280;33291;46.222;26.460;2023-11-19T06:54:46;96536.69;;;1.10;94.21
47556;BME280;33291;46.222;26.460;2023-11-19T06:57:12;96542.66;;;1.10;93.42
47556;BME280;33291;46.222;26.460;2023-11-19T06:59:38;96534.06;;;1.11;92.98
47556;BME280;33291;46.222;26.460;2023-11-19T07:02:04;96526.19;;;1.14;93.12
47556;BME280;33291;46.222;26.460;2023-11-19T07:04:30;96532.88;;;1.17;93.20
47556;BME280;33291;46.222;26.460;2023-11-19T07:06:56;96532.06;;;1.16;92.82
47556;BME280;33291;46.222;26.460;2023-11-19T07:09:21;96539.03;;;1.14;92.46
47556;BME280;33291;46.222;26.460;2023-11-19T07:11:48;96540.81;;;1.12;91.74
47556;BME280;33291;46.222;26.460;2023-11-19T07:14:15;96547.69;;;1.12;91.28
47556;BME280;33291;46.222;26.460;2023-11-19T07:16:41;96544.31;;;1.11;91.10
47556;BME280;33291;46.222;26.460;2023-11-19T07:19:08;96548.19;;;1.18;91.10
47556;BME280;33291;46.222;26.460;2023-11-19T07:21:33;96546.25;;;1.23;91.33
47556;BME280;33291;46.222;26.460;2023-11-19T07:23:59;96550.31;;;1.28;91.67
47556;BME280;33291;46.222;26.460;2023-11-19T07:26:25;96551.78;;;1.32;91.70
47556;BME280;33291;46.222;26.460;2023-11-19T07:28:50;96549.91;;;1.35;91.69
47556;BME280;33291;46.222;26.460;2023-11-19T07:31:16;96546.41;;;1.36;90.68
47556;BME280;33291;46.222;26.460;2023-11-19T07:33:45;96546.34;;;1.38;89.91
47556;BME280;33291;46.222;26.460;2023-11-19T07:36:11;96553.13;;;1.39;90.19
47556;BME280;33291;46.222;26.460;2023-11-19T07:38:37;96525.78;;;1.22;90.26
47556;BME280;33291;46.222;26.460;2023-11-19T07:41:04;96545.84;;;1.47;89.39
47556;BME280;33291;46.222;26.460;2023-11-19T07:43:30;96544.78;;;1.51;88.09
47556;BME280;33291;46.222;26.460;2023-11-19T07:45:56;96541.06;;;1.57;87.35
47556;BME280;33291;46.222;26.460;2023-11-19T07:48:21;96540.81;;;1.62;86.58
47556;BME280;33291;46.222;26.460;2023-11-19T07:50:52;96539.91;;;1.63;86.05
47556;BME280;33291;46.222;26.460;2023-11-19T07:53:19;96531.59;;;1.57;86.29
47556;BME280;33291;46.222;26.460;2023-11-19T07:55:45;96532.22;;;1.63;86.01
47556;BME280;33291;46.222;26.460;2023-11-19T07:58:11;96522.28;;;1.56;85.94
47556;BME280;33291;46.222;26.460;2023-11-19T08:00:37;96526.16;;;1.48;85.82
47556;BME280;33291;46.222;26.460;2023-11-19T08:03:03;96534.84;;;1.45;86.31
47556;BME280;33291;46.222;26.460;2023-11-19T08:05:29;96527.88;;;1.47;86.50
47556;BME280;33291;46.222;26.460;2023-11-19T08:07:55;96530.34;;;1.49;86.87
47556;BME280;33291;46.222;26.460;2023-11-19T08:10:20;96532.75;;;1.52;87.57
47556;BME280;33291;46.222;26.460;2023-11-19T08:12:46;96534.19;;;1.57;88.34
47556;BME280;33291;46.222;26.460;2023-11-19T08:15:12;96526.75;;;1.69;88.73
47556;BME280;33291;46.222;26.460;2023-11-19T08:17:37;96518.03;;;1.87;88.32
47556;BME280;33291;46.222;26.460;2023-11-19T08:20:03;96491.44;;;1.88;87.54
47556;BME280;33291;46.222;26.460;2023-11-19T08:22:30;96500.75;;;2.05;86.90
47556;BME280;33291;46.222;26.460;2023-11-19T08:24:56;96483.75;;;2.19;86.85
47556;BME280;33291;46.222;26.460;2023-11-19T08:27:21;96492.69;;;2.42;86.86
47556;BME280;33291;46.222;26.460;2023-11-19T08:29:54;96493.28;;;2.61;84.39
47556;BME280;33291;46.222;26.460;2023-11-19T08:32:25;96478.31;;;2.68;82.77
47556;BME280;33291;46.222;26.460;2023-11-19T08:34:51;96480.81;;;2.84;82.93
47556;BME280;33291;46.222;26.460;2023-11-19T08:37:16;96458.00;;;2.92;82.52
47556;BME280;33291;46.222;26.460;2023-11-19T08:39:46;96463.69;;;3.12;81.55
47556;BME280;33291;46.222;26.460;2023-11-19T08:42:12;96476.09;;;3.19;79.07
47556;BME280;33291;46.222;26.460;2023-11-19T08:44:37;96472.66;;;3.33;78.34
47556;BME280;33291;46.222;26.460;2023-11-19T08:47:03;96467.13;;;3.54;77.84
47556;BME280;33291;46.222;26.460;2023-11-19T08:49:29;96453.69;;;3.76;76.37
47556;BME280;33291;46.222;26.460;2023-11-19T08:51:54;96460.34;;;3.93;74.13
47556;BME280;33291;46.222;26.460;2023-11-19T08:54:20;96460.34;;;3.93;73.37
47556;BME280;33291;46.222;26.460;2023-11-19T08:56:46;96456.16;;;3.78;73.52
47556;BME280;33291;46.222;26.460;2023-11-19T08:59:12;96455.00;;;3.69;75.25
47556;BME280;33291;46.222;26.460;2023-11-19T09:01:37;96460.72;;;3.74;76.29
47556;BME280;33291;46.222;26.460;2023-11-19T09:04:03;96458.03;;;3.76;74.06
47556;BME280;33291;46.222;26.460;2023-11-19T09:06:29;96447.00;;;3.73;75.15
47556;BME280;33291;46.222;26.460;2023-11-19T09:08:55;96453.41;;;3.81;74.80
47556;BME280;33291;46.222;26.460;2023-11-19T09:11:25;96446.50;;;3.81;76.03
47556;BME280;33291;46.222;26.460;2023-11-19T09:13:51;96450.31;;;3.88;75.25
47556;BME280;33291;46.222;26.460;2023-11-19T09:16:16;96439.78;;;3.79;73.81
47556;BME280;33291;46.222;26.460;2023-11-19T09:18:42;96436.97;;;3.69;75.13
47556;BME280;33291;46.222;26.460;2023-11-19T09:21:07;96423.72;;;3.75;75.92
47556;BME280;33291;46.222;26.460;2023-11-19T09:23:33;96410.00;;;3.74;75.03
47556;BME280;33291;46.222;26.460;2023-11-19T09:26:08;96410.34;;;3.96;74.64
47556;BME280;33291;46.222;26.460;2023-11-19T09:28:33;96407.41;;;4.15;75.52
47556;BME280;33291;46.222;26.460;2023-11-19T09:30:59;96403.41;;;4.36;75.12
47556;BME280;33291;46.222;26.460;2023-11-19T09:33:24;96396.25;;;4.66;74.76
47556;BME280;33291;46.222;26.460;2023-11-19T09:35:50;96396.75;;;4.84;72.00
47556;BME280;33291;46.222;26.460;2023-11-19T09:38:16;96383.75;;;4.85;72.51
47556;BME280;33291;46.222;26.460;2023-11-19T09:40:42;96381.09;;;4.74;72.61
47556;BME280;33291;46.222;26.460;2023-11-19T09:43:08;96392.75;;;4.67;71.73
47556;BME280;33291;46.222;26.460;2023-11-19T09:45:48;96386.88;;;4.65;72.61
47556;BME280;33291;46.222;26.460;2023-11-19T09:48:18;96380.88;;;4.64;73.80
47556;BME280;33291;46.222;26.460;2023-11-19T09:50:47;96371.38;;;4.77;74.85
47556;BME280;33291;46.222;26.460;2023-11-19T09:53:14;96372.28;;;4.89;73.06
47556;BME280;33291;46.222;26.460;2023-11-19T09:55:40;96365.97;;;4.93;71.58
47556;BME280;33291;46.222;26.460;2023-11-19T09:58:07;96359.91;;;4.82;71.08
47556;BME280;33291;46.222;26.460;2023-11-19T10:00:33;96343.75;;;4.67;71.81
47556;BME280;33291;46.222;26.460;2023-11-19T10:02:59;96355.69;;;4.80;71.95
47556;BME280;33291;46.222;26.460;2023-11-19T10:05:25;96353.09;;;4.80;72.34
47556;BME280;33291;46.222;26.460;2023-11-19T10:07:54;96340.19;;;4.80;72.75
47556;BME280;33291;46.222;26.460;2023-11-19T10:10:21;96348.22;;;4.89;72.52
47556;BME280;33291;46.222;26.460;2023-11-19T10:12:46;96351.53;;;4.91;71.73
47556;BME280;33291;46.222;26.460;2023-11-19T10:15:22;96343.28;;;4.86;71.71
47556;BME280;33291;46.222;26.460;2023-11-19T10:17:49;96325.84;;;4.89;72.51
47556;BME280;33291;46.222;26.460;2023-11-19T10:20:15;96318.69;;;4.93;72.39
47556;BME280;33291;46.222;26.460;2023-11-19T10:22:41;96345.22;;;5.19;71.42
47556;BME280;33291;46.222;26.460;2023-11-19T10:25:25;96342.97;;;5.14;69.81
47556;BME280;33291;46.222;26.460;2023-11-19T10:27:52;96341.84;;;5.19;71.07
47556;BME280;33291;46.222;26.460;2023-11-19T10:30:28;96322.06;;;5.06;71.53
47556;BME280;33291;46.222;26.460;2023-11-19T10:33:14;96320.72;;;5.25;71.70
47556;BME280;33291;46.222;26.460;2023-11-19T10:35:58;96319.16;;;5.35;70.58
47556;BME280;33291;46.222;26.460;2023-11-19T10:38:25;96320.28;;;5.31;70.66
47556;BME280;33291;46.222;26.460;2023-11-19T10:40:51;96329.41;;;5.24;71.25
47556;BME280;33291;46.222;26.460;2023-11-19T10:43:17;96326.81;;;5.24;71.24
47556;BME280;33291;46.222;26.460;2023-11-19T10:45:43;96316.19;;;5.04;71.18
47556;BME280;33291;46.222;26.460;2023-11-19T10:48:09;96325.44;;;5.07;71.40
47556;BME280;33291;46.222;26.460;2023-11-19T10:50:39;96330.28;;;5.11;71.91
47556;BME280;33291;46.222;26.460;2023-11-19T10:53:07;96323.50;;;5.10;71.07
47556;BME280;33291;46.222;26.460;2023-11-19T10:55:35;96327.09;;;5.08;71.99
47556;BME280;33291;46.222;26.460;2023-11-19T10:58:02;96312.44;;;5.08;71.95
47556;BME280;33291;46.222;26.460;2023-11-19T11:00:29;96311.78;;;5.18;71.38
47556;BME280;33291;46.222;26.460;2023-11-19T11:03:05;96304.53;;;5.23;72.17
47556;BME280;33291;46.222;26.460;2023-11-19T11:05:36;96299.97;;;5.26;72.14
47556;BME280;33291;46.222;26.460;2023-11-19T11:08:06;96287.06;;;5.26;71.29
47556;BME280;33291;46.222;26.460;2023-11-19T11:10:34;96277.50;;;5.15;72.11
47556;BME280;33291;46.222;26.460;2023-11-19T11:13:03;96279.88;;;5.19;73.35
47556;BME280;33291;46.222;26.460;2023-11-19T11:15:30;96267.75;;;5.19;72.80
47556;BME280;33291;46.222;26.460;2023-11-19T11:17:59;96268.38;;;5.23;72.04
47556;BME280;33291;46.222;26.460;2023-11-19T11:20:32;96260.56;;;5.11;72.04
47556;BME280;33291;46.222;26.460;2023-11-19T11:31:35;96268.69;;;5.42;70.66
47556;BME280;33291;46.222;26.460;2023-11-19T11:36:51;96264.91;;;5.35;71.01
47556;BME280;33291;46.222;26.460;2023-11-19T11:39:22;96256.41;;;5.22;71.11
47556;BME280;33291;46.222;26.460;2023-11-19T11:45:07;96260.47;;;5.13;72.24
47556;BME280;33291;46.222;26.460;2023-11-19T11:55:36;96246.88;;;5.22;72.80
47556;BME280;33291;46.222;26.460;2023-11-19T11:58:05;96254.97;;;5.18;73.68
47556;BME280;33291;46.222;26.460;2023-11-19T12:00:39;96249.16;;;5.27;73.29
47556;BME280;33291;46.222;26.460;2023-11-19T12:03:05;96250.34;;;5.34;73.49
47556;BME280;33291;46.222;26.460;2023-11-19T12:05:32;96249.06;;;5.40;72.82
47556;BME280;33291;46.222;26.460;2023-11-19T12:08:04;96260.44;;;5.37;72.43
47556;BME280;33291;46.222;26.460;2023-11-19T12:10:36;96257.66;;;5.16;73.62
47556;BME280;33291;46.222;26.460;2023-11-19T12:13:06;96263.03;;;5.13;74.84
47556;BME280;33291;46.222;26.460;2023-11-19T12:15:32;96261.13;;;5.28;74.32
47556;BME280;33291;46.222;26.460;2023-11-19T12:17:58;96255.91;;;5.41;73.98
47556;BME280;33291;46.222;26.460;2023-11-19T12:20:25;96260.00;;;5.43;73.62
47556;BME280;33291;46.222;26.460;2023-11-19T12:22:52;96257.16;;;5.35;73.83
47556;BME280;33291;46.222;26.460;2023-11-19T12:25:18;96257.59;;;5.29;74.32
47556;BME280;33291;46.222;26.460;2023-11-19T12:30:11;96251.69;;;5.15;76.21
47556;BME280;33291;46.222;26.460;2023-11-19T12:32:38;96248.47;;;5.36;75.07
47556;BME280;33291;46.222;26.460;2023-11-19T12:35:04;96253.19;;;5.42;74.17
47556;BME280;33291;46.222;26.460;2023-11-19T12:37:30;96256.94;;;5.38;74.79
47556;BME280;33291;46.222;26.460;2023-11-19T12:39:57;96253.78;;;5.46;74.90
47556;BME280;33291;46.222;26.460;2023-11-19T12:42:44;96255.56;;;5.57;73.50
47556;BME280;33291;46.222;26.460;2023-11-19T12:45:10;96240.28;;;5.42;73.98
47556;BME280;33291;46.222;26.460;2023-11-19T12:47:37;96272.22;;;5.52;74.12
47556;BME280;33291;46.222;26.460;2023-11-19T12:50:03;96264.00;;;5.47;73.82
47556;BME280;33291;46.222;26.460;2023-11-19T12:52:29;96258.13;;;5.45;73.91
47556;BME280;33291;46.222;26.460;2023-11-19T12:54:55;96247.28;;;5.40;73.76
47556;BME280;33291;46.222;26.460;2023-11-19T12:57:21;96246.00;;;5.34;73.50
47556;BME280;33291;46.222;26.460;2023-11-19T12:59:56;96244.63;;;5.18;74.83
47556;BME280;33291;46.222;26.460;2023-11-19T13:02:44;96254.38;;;4.90;75.94
47556;BME280;33291;46.222;26.460;2023-11-19T13:05:32;96252.84;;;4.87;76.25
47556;BME280;33291;46.222;26.460;2023-11-19T13:08:02;96256.97;;;4.90;75.96
47556;BME280;33291;46.222;26.460;2023-11-19T13:10:28;96247.78;;;4.86;76.08
47556;BME280;33291;46.222;26.460;2023-11-19T13:15:29;96240.81;;;4.99;75.95
47556;BME280;33291;46.222;26.460;2023-11-19T13:17:54;96203.66;;;4.77;75.57
47556;BME280;33291;46.222;26.460;2023-11-19T13:20:20;96227.44;;;4.94;75.99
47556;BME280;33291;46.222;26.460;2023-11-19T13:23:00;96229.34;;;4.79;75.60
47556;BME280;33291;46.222;26.460;2023-11-19T13:25:26;96223.69;;;4.98;75.44
47556;BME280;33291;46.222;26.460;2023-11-19T13:27:53;96217.09;;;4.94;75.29